createdAt,value
2024-05-09T00:00:18.460Z,74.87
2024-05-09T00:02:44.340Z,74.92
2024-05-09T00:05:11.951Z,74.98
2024-05-09T00:07:39.513Z,75.10
2024-05-09T00:10:11.764Z,75.22
2024-05-09T00:12:36.602Z,75.35
2024-05-09T00:15:05.014Z,75.40
2024-05-09T00:17:32.907Z,75.51
2024-05-09T00:20:00.703Z,75.44
2024-05-09T00:22:28.283Z,75.52
2024-05-09T00:24:55.988Z,75.82
2024-05-09T00:27:23.386Z,75.78
2024-05-09T00:29:50.961Z,76.04
2024-05-09T00:32:18.572Z,76.06
2024-05-09T00:34:46.168Z,76.14
2024-05-09T00:37:13.605Z,76.15
2024-05-09T00:39:50.605Z,76.29
2024-05-09T00:42:23.885Z,76.39
2024-05-09T00:44:51.464Z,76.59
2024-05-09T00:47:19.089Z,76.83
2024-05-09T00:49:47.815Z,76.79
2024-05-09T00:52:15.804Z,76.93
2024-05-09T00:54:43.239Z,77.00
2024-05-09T00:57:10.703Z,77.02
2024-05-09T00:59:38.435Z,77.16
2024-05-09T01:02:06.242Z,77.24
2024-05-09T01:04:33.770Z,77.11
2024-05-09T01:07:01.391Z,77.17
2024-05-09T01:09:32.055Z,77.11
2024-05-09T01:11:59.691Z,77.23
2024-05-09T01:14:27.532Z,77.17
2024-05-09T01:16:54.920Z,77.21
2024-05-09T01:19:30.428Z,77.22
2024-05-09T01:21:57.907Z,77.20
2024-05-09T01:24:25.798Z,77.42
2024-05-09T01:26:54.043Z,77.16
2024-05-09T01:29:24.542Z,77.00
2024-05-09T01:31:53.469Z,76.89
2024-05-09T01:34:29.519Z,76.20
2024-05-09T01:37:00.087Z,76.35
2024-05-09T01:39:33.809Z,76.33
2024-05-09T01:42:04.126Z,76.00
2024-05-09T01:44:32.777Z,75.69
2024-05-09T01:47:01.557Z,75.40
2024-05-09T01:49:34.346Z,75.11
2024-05-09T01:52:03.422Z,74.76
2024-05-09T01:54:31.068Z,74.59
2024-05-09T01:56:58.603Z,74.25
2024-05-09T01:59:26.181Z,74.21
2024-05-09T02:01:56.977Z,74.09
2024-05-09T02:04:23.769Z,74.42
2024-05-09T02:06:51.354Z,74.58
2024-05-09T02:09:19.005Z,74.69
2024-05-09T02:11:47.906Z,74.89
2024-05-09T02:14:17.727Z,74.88
2024-05-09T02:16:45.176Z,75.01
2024-05-09T02:19:12.845Z,75.12
2024-05-09T02:21:40.614Z,75.07
2024-05-09T02:24:08.080Z,75.08
2024-05-09T02:26:35.752Z,74.97
2024-05-09T02:29:03.522Z,74.92
2024-05-09T02:31:31.146Z,75.03
2024-05-09T02:33:58.751Z,75.13
2024-05-09T02:36:26.573Z,75.25
2024-05-09T02:38:53.881Z,75.36
2024-05-09T02:41:21.415Z,75.33
2024-05-09T02:43:48.966Z,75.31
2024-05-09T02:46:16.656Z,75.42
2024-05-09T02:48:44.191Z,75.68
2024-05-09T02:51:11.911Z,75.86
2024-05-09T02:53:39.581Z,75.95
2024-05-09T02:56:07.295Z,75.50
2024-05-09T02:58:34.764Z,75.24
2024-05-09T03:01:02.396Z,75.28
2024-05-09T03:03:30.357Z,75.15
2024-05-09T03:05:58.260Z,74.99
2024-05-09T03:08:27.301Z,75.13
2024-05-09T03:10:54.880Z,75.19
2024-05-09T03:13:22.422Z,75.31
2024-05-09T03:15:49.962Z,75.63
2024-05-09T03:18:17.828Z,75.78
2024-05-09T03:20:45.403Z,75.68
2024-05-09T03:23:13.140Z,75.75
2024-05-09T03:25:41.046Z,76.02
2024-05-09T03:28:08.661Z,76.20
2024-05-09T03:30:41.302Z,76.34
2024-05-09T03:33:07.669Z,76.62
2024-05-09T03:35:35.315Z,76.73
2024-05-09T03:38:03.020Z,76.98
2024-05-09T03:40:31.186Z,76.89
2024-05-09T03:42:58.944Z,76.98
2024-05-09T03:45:26.612Z,77.04
2024-05-09T03:47:54.210Z,77.00
2024-05-09T03:50:30.005Z,76.92
2024-05-09T03:52:51.409Z,76.72
2024-05-09T03:55:19.191Z,76.63
2024-05-09T03:57:46.757Z,76.46
2024-05-09T04:00:18.357Z,76.10
2024-05-09T04:02:47.326Z,75.83
2024-05-09T04:05:15.029Z,75.58
2024-05-09T04:07:43.736Z,75.63
2024-05-09T04:10:17.361Z,75.49
2024-05-09T04:12:40.807Z,75.28
2024-05-09T04:15:11.206Z,74.89
2024-05-09T04:17:38.659Z,74.54
2024-05-09T04:20:08.626Z,74.54
2024-05-09T04:22:36.803Z,74.21
2024-05-09T04:25:05.144Z,74.49
2024-05-09T04:27:32.577Z,74.53
2024-05-09T04:30:00.279Z,74.75
2024-05-09T04:32:28.002Z,74.91
2024-05-09T04:34:55.717Z,75.04
2024-05-09T04:37:24.853Z,75.07
2024-05-09T04:39:52.506Z,75.28
2024-05-09T04:42:20.054Z,75.50
2024-05-09T04:44:47.662Z,75.60
2024-05-09T04:47:15.583Z,75.76
2024-05-09T04:49:44.867Z,75.88
2024-05-09T04:52:12.428Z,75.92
2024-05-09T04:54:40.028Z,75.64
2024-05-09T04:57:07.594Z,75.77
2024-05-09T04:59:35.786Z,76.00
2024-05-09T05:02:03.772Z,76.21
2024-05-09T05:04:31.698Z,76.32
2024-05-09T05:07:02.547Z,76.38
2024-05-09T05:09:28.716Z,76.49
2024-05-09T05:11:56.311Z,76.56
2024-05-09T05:14:23.930Z,76.71
2024-05-09T05:16:51.519Z,76.74
2024-05-09T05:19:19.264Z,77.09
2024-05-09T05:21:46.592Z,77.27
2024-05-09T05:24:14.182Z,77.25
2024-05-09T05:26:41.769Z,77.34
2024-05-09T05:29:10.228Z,77.41
2024-05-09T05:31:38.002Z,77.55
2024-05-09T05:34:05.773Z,77.76
2024-05-09T05:36:33.283Z,78.13
2024-05-09T05:39:01.222Z,78.46
2024-05-09T05:41:28.996Z,78.41
2024-05-09T05:43:56.582Z,78.18
2024-05-09T05:46:24.215Z,78.40
2024-05-09T05:48:52.391Z,78.40
2024-05-09T05:51:20.159Z,78.14
2024-05-09T05:53:47.686Z,78.21
2024-05-09T05:56:15.227Z,78.05
2024-05-09T05:58:42.865Z,78.00
2024-05-09T06:01:10.476Z,78.00
2024-05-09T06:03:38.807Z,77.69
2024-05-09T06:06:07.039Z,77.31
2024-05-09T06:08:34.553Z,77.16
2024-05-09T06:11:02.794Z,76.74
2024-05-09T06:13:30.429Z,76.49
2024-05-09T06:15:59.793Z,76.23
2024-05-09T06:18:27.588Z,76.15
2024-05-09T06:20:55.172Z,76.22
2024-05-09T06:23:22.923Z,76.38
2024-05-09T06:25:50.964Z,76.36
2024-05-09T06:28:18.483Z,76.37
2024-05-09T06:30:46.269Z,76.38
2024-05-09T06:33:15.823Z,76.53
2024-05-09T06:35:43.984Z,76.69
2024-05-09T06:38:12.400Z,77.04
2024-05-09T06:40:43.611Z,77.27
2024-05-09T06:43:17.167Z,77.43
2024-05-09T06:45:45.288Z,77.60
2024-05-09T06:48:13.262Z,77.70
2024-05-09T06:50:41.482Z,77.92
2024-05-09T06:53:09.364Z,78.00
2024-05-09T06:55:38.010Z,78.07
2024-05-09T06:58:06.704Z,78.11
2024-05-09T07:00:39.373Z,78.07
2024-05-09T07:03:09.272Z,78.14
2024-05-09T07:05:37.575Z,78.29
2024-05-09T07:08:06.361Z,78.36
2024-05-09T07:10:36.179Z,78.33
2024-05-09T07:13:12.041Z,78.51
2024-05-09T07:15:40.615Z,78.74
2024-05-09T07:18:13.052Z,78.95
2024-05-09T07:20:41.464Z,79.04
2024-05-09T07:23:09.935Z,79.00
2024-05-09T07:25:39.036Z,79.40
2024-05-09T07:28:13.026Z,79.52
2024-05-09T07:30:40.618Z,79.62
2024-05-09T07:33:08.315Z,79.54
2024-05-09T07:35:36.199Z,79.64
2024-05-09T07:38:04.283Z,79.04
2024-05-09T07:40:36.091Z,79.24
2024-05-09T07:43:03.477Z,79.41
2024-05-09T07:45:47.978Z,79.52
2024-05-09T07:55:29.394Z,79.11
2024-05-09T07:57:57.123Z,79.22
2024-05-09T08:00:31.030Z,78.53
2024-05-09T08:02:54.148Z,78.10
2024-05-09T08:05:21.893Z,78.07
2024-05-09T08:07:49.953Z,77.94
2024-05-09T08:10:22.138Z,77.60
2024-05-09T08:12:46.670Z,77.03
2024-05-09T08:15:14.023Z,76.62
2024-05-09T08:17:41.499Z,76.67
2024-05-09T08:20:09.859Z,76.58
2024-05-09T08:22:38.862Z,76.54
2024-05-09T08:25:06.883Z,76.23
2024-05-09T08:27:36.257Z,76.34
2024-05-09T08:30:04.899Z,76.62
2024-05-09T08:32:34.498Z,76.04
2024-05-09T08:35:02.233Z,76.14
2024-05-09T08:37:34.929Z,76.20
2024-05-09T08:39:59.516Z,75.96
2024-05-09T08:42:28.946Z,76.09
2024-05-09T08:44:56.682Z,75.92
2024-05-09T08:47:25.015Z,75.91
2024-05-09T08:49:55.372Z,75.74
2024-05-09T08:52:22.866Z,75.76
2024-05-09T08:54:50.401Z,75.52
2024-05-09T08:57:19.014Z,75.60
2024-05-09T08:59:51.141Z,75.49
2024-05-09T09:02:19.476Z,75.60
2024-05-09T09:04:59.774Z,75.26
2024-05-09T09:07:28.485Z,75.33
2024-05-09T09:09:56.131Z,75.74
2024-05-09T09:12:23.618Z,75.76
2024-05-09T09:14:51.191Z,76.11
2024-05-09T09:17:19.120Z,75.92
2024-05-09T09:19:46.917Z,76.03
2024-05-09T09:22:14.637Z,76.19
2024-05-09T09:24:42.463Z,76.44
2024-05-09T09:27:14.760Z,76.38
2024-05-09T09:29:42.478Z,76.53
2024-05-09T09:32:11.169Z,76.47
2024-05-09T09:34:38.593Z,76.44
2024-05-09T09:37:08.100Z,76.56
2024-05-09T09:39:37.187Z,76.47
2024-05-09T09:42:05.644Z,76.47
2024-05-09T09:44:34.213Z,76.58
2024-05-09T09:47:02.582Z,76.68
2024-05-09T09:49:32.269Z,76.48
2024-05-09T09:52:01.723Z,76.28
2024-05-09T09:54:29.528Z,76.52
2024-05-09T09:56:58.139Z,76.18
2024-05-09T09:59:25.743Z,76.15
2024-05-09T10:01:53.735Z,76.37
2024-05-09T10:04:21.602Z,76.52
2024-05-09T10:06:52.827Z,76.67
2024-05-09T10:09:20.974Z,75.94
2024-05-09T10:11:52.080Z,76.39
2024-05-09T10:14:21.658Z,76.26
2024-05-09T10:16:49.480Z,76.30
2024-05-09T10:19:27.328Z,75.47
2024-05-09T10:22:02.542Z,75.60
2024-05-09T10:24:52.436Z,74.77
2024-05-09T10:27:29.663Z,74.50
2024-05-09T10:29:58.945Z,73.49
2024-05-09T10:32:28.285Z,73.76
2024-05-09T10:35:14.310Z,73.24
2024-05-09T10:37:41.974Z,73.40
2024-05-09T10:40:19.913Z,72.92
2024-05-09T10:42:42.489Z,73.44
2024-05-09T10:45:09.858Z,73.05
2024-05-09T10:47:38.109Z,73.10
2024-05-09T10:50:15.451Z,71.80
2024-05-09T10:52:35.616Z,72.67
2024-05-09T10:55:05.799Z,71.88
2024-05-09T10:57:40.338Z,71.87
2024-05-09T11:00:15.595Z,71.56
2024-05-09T11:02:37.860Z,71.10
2024-05-09T11:05:06.154Z,70.24
2024-05-09T11:07:33.846Z,69.32
2024-05-09T11:10:01.710Z,69.60
2024-05-09T11:12:29.473Z,68.58
2024-05-09T11:14:56.910Z,68.95
2024-05-09T11:17:24.386Z,69.10
2024-05-09T11:19:52.203Z,68.89
2024-05-09T11:22:20.934Z,69.33
2024-05-09T11:24:48.630Z,69.80
2024-05-09T11:27:16.232Z,70.40
2024-05-09T11:29:45.697Z,70.00
2024-05-09T11:32:15.203Z,69.51
2024-05-09T11:34:43.019Z,68.07
2024-05-09T11:37:12.443Z,68.11
2024-05-09T11:39:40.077Z,68.57
2024-05-09T11:42:07.716Z,68.80
2024-05-09T11:44:35.440Z,68.93
2024-05-09T11:47:03.950Z,68.35
2024-05-09T11:49:31.465Z,67.71
2024-05-09T11:51:59.210Z,67.28
2024-05-09T11:54:26.731Z,66.73
2024-05-09T11:56:54.257Z,66.50
2024-05-09T11:59:21.764Z,66.26
2024-05-09T12:01:49.565Z,65.74
2024-05-09T12:04:17.415Z,65.20
2024-05-09T12:06:45.880Z,64.44
2024-05-09T12:09:13.723Z,64.73
2024-05-09T12:11:41.155Z,65.31
2024-05-09T12:14:08.787Z,65.51
2024-05-09T12:16:36.653Z,65.34
2024-05-09T12:19:04.606Z,64.98
2024-05-09T12:21:32.153Z,64.50
2024-05-09T12:23:59.515Z,64.38
2024-05-09T12:26:27.847Z,64.63
2024-05-09T12:28:55.391Z,64.80
2024-05-09T12:31:22.971Z,64.58
2024-05-09T12:33:50.688Z,63.72
2024-05-09T12:36:18.323Z,63.36
2024-05-09T12:38:46.014Z,63.40
2024-05-09T12:41:13.520Z,63.83
2024-05-09T12:43:41.157Z,63.22
2024-05-09T12:46:08.633Z,60.72
2024-05-09T12:48:36.444Z,60.13
2024-05-09T12:51:05.308Z,59.97
2024-05-09T12:53:32.898Z,59.83
2024-05-09T12:56:02.931Z,59.92
2024-05-09T12:58:30.292Z,60.26
2024-05-09T13:00:58.093Z,59.73
2024-05-09T13:03:26.418Z,58.80
2024-05-09T13:05:54.202Z,57.87
2024-05-09T13:08:21.976Z,57.32
2024-05-09T13:10:49.777Z,57.25
2024-05-09T13:13:17.433Z,57.01
2024-05-09T13:15:45.330Z,57.33
2024-05-09T13:18:12.881Z,57.17
2024-05-09T13:20:40.492Z,57.22
2024-05-09T13:23:08.744Z,56.75
2024-05-09T13:25:38.000Z,57.28
2024-05-09T13:28:06.807Z,56.75
2024-05-09T13:30:39.904Z,56.57
2024-05-09T13:33:04.786Z,55.39
2024-05-09T13:35:33.761Z,55.92
2024-05-09T13:38:01.755Z,56.20
2024-05-09T13:40:33.805Z,56.07
2024-05-09T13:42:58.544Z,56.17
2024-05-09T13:45:26.091Z,56.05
2024-05-09T13:47:54.264Z,56.33
2024-05-09T13:50:30.997Z,56.66
2024-05-09T13:52:51.581Z,56.52
2024-05-09T13:55:19.038Z,56.87
2024-05-09T13:57:46.755Z,57.32
2024-05-09T14:00:27.172Z,57.24
2024-05-09T14:02:44.883Z,57.42
2024-05-09T14:05:12.929Z,57.15
2024-05-09T14:07:41.126Z,57.08
2024-05-09T14:10:19.452Z,57.77
2024-05-09T14:12:38.211Z,57.74
2024-05-09T14:15:05.915Z,57.55
2024-05-09T14:17:33.717Z,57.39
2024-05-09T14:20:01.425Z,57.17
2024-05-09T14:22:29.086Z,57.04
2024-05-09T14:24:56.605Z,57.16
2024-05-09T14:27:24.282Z,57.39
2024-05-09T14:29:51.711Z,57.25
2024-05-09T14:32:19.093Z,57.52
2024-05-09T14:34:47.037Z,57.07
2024-05-09T14:37:14.772Z,57.02
2024-05-09T14:39:42.381Z,56.80
2024-05-09T14:42:09.942Z,56.58
2024-05-09T14:44:37.547Z,56.45
2024-05-09T14:47:05.285Z,56.47
2024-05-09T14:49:32.848Z,56.74
2024-05-09T14:52:00.414Z,57.61
2024-05-09T14:54:27.978Z,58.22
2024-05-09T14:56:55.985Z,57.67
2024-05-09T14:59:23.574Z,57.08
2024-05-09T15:01:51.245Z,56.72
2024-05-09T15:04:19.179Z,56.78
2024-05-09T15:06:48.069Z,56.86
2024-05-09T15:09:15.765Z,56.82
2024-05-09T15:11:43.461Z,56.55
2024-05-09T15:14:10.915Z,56.90
2024-05-09T15:16:38.866Z,57.06
2024-05-09T15:19:06.537Z,56.83
2024-05-09T15:21:34.152Z,57.34
2024-05-09T15:24:01.845Z,56.97
2024-05-09T15:26:29.435Z,56.73
2024-05-09T15:28:57.053Z,57.55
2024-05-09T15:31:24.618Z,58.45
2024-05-09T15:33:52.392Z,59.10
2024-05-09T15:36:20.309Z,59.29
2024-05-09T15:38:48.054Z,60.00
2024-05-09T15:41:15.668Z,60.80
2024-05-09T15:43:43.341Z,61.69
2024-05-09T15:46:11.230Z,62.05
2024-05-09T15:48:42.683Z,62.15
2024-05-09T15:51:08.995Z,62.57
2024-05-09T15:53:36.514Z,63.36
2024-05-09T15:56:04.843Z,63.09
2024-05-09T15:58:32.183Z,63.50
2024-05-09T16:00:59.754Z,63.72
2024-05-09T16:03:27.621Z,64.06
2024-05-09T16:05:56.854Z,64.15
2024-05-09T16:08:24.345Z,63.53
2024-05-09T16:10:51.868Z,63.09
2024-05-09T16:13:20.114Z,63.45
2024-05-09T16:15:47.999Z,63.27
2024-05-09T16:18:15.935Z,62.21
2024-05-09T16:20:45.433Z,62.42
2024-05-09T16:23:13.085Z,62.55
2024-05-09T16:25:45.465Z,62.27
2024-05-09T16:28:13.480Z,62.72
2024-05-09T16:30:41.789Z,62.51
2024-05-09T16:33:12.539Z,62.59
2024-05-09T16:35:40.556Z,61.47
2024-05-09T16:38:08.388Z,61.03
2024-05-09T16:40:39.868Z,60.73
2024-05-09T16:43:06.286Z,59.88
2024-05-09T16:45:34.441Z,60.04
2024-05-09T16:48:02.354Z,60.07
2024-05-09T16:50:33.542Z,60.11
2024-05-09T16:53:01.438Z,59.70
2024-05-09T16:55:29.289Z,59.72
2024-05-09T16:57:57.841Z,59.50
2024-05-09T17:00:35.792Z,59.33
2024-05-09T17:02:55.203Z,59.17
2024-05-09T17:05:23.128Z,58.75
2024-05-09T17:07:51.092Z,58.68
2024-05-09T17:10:26.692Z,58.71
2024-05-09T17:12:48.243Z,58.88
2024-05-09T17:15:16.837Z,58.97
2024-05-09T17:17:44.500Z,59.11
2024-05-09T17:20:22.906Z,59.29
2024-05-09T17:22:41.671Z,59.48
2024-05-09T17:25:09.361Z,59.76
2024-05-09T17:27:36.996Z,59.98
2024-05-09T17:30:07.963Z,60.40
2024-05-09T17:32:35.416Z,61.02
2024-05-09T17:35:03.597Z,61.64
2024-05-09T17:37:31.291Z,62.14
2024-05-09T17:39:59.236Z,62.41
2024-05-09T17:42:26.981Z,62.90
2024-05-09T17:44:54.560Z,63.22
2024-05-09T17:47:22.509Z,63.43
2024-05-09T17:49:50.222Z,63.90
2024-05-09T17:52:18.209Z,64.09
2024-05-09T17:54:45.976Z,64.17
2024-05-09T17:57:13.728Z,64.51
2024-05-09T17:59:41.198Z,64.70
2024-05-09T18:02:08.974Z,64.95
2024-05-09T18:04:36.914Z,65.11
2024-05-09T18:07:04.784Z,65.38
2024-05-09T18:09:32.655Z,65.71
2024-05-09T18:12:01.244Z,66.04
2024-05-09T18:14:28.854Z,66.22
2024-05-09T18:16:56.269Z,66.49
2024-05-09T18:19:23.837Z,66.79
2024-05-09T18:21:51.762Z,67.08
2024-05-09T18:24:21.172Z,67.22
2024-05-09T18:26:49.105Z,67.51
2024-05-09T18:29:21.718Z,67.60
2024-05-09T18:31:47.406Z,67.58
2024-05-09T18:34:14.947Z,67.79
2024-05-09T18:36:42.916Z,67.82
2024-05-09T18:39:10.428Z,67.95
2024-05-09T18:41:38.084Z,68.39
2024-05-09T18:44:05.821Z,68.51
2024-05-09T18:46:33.522Z,68.59
2024-05-09T18:49:00.995Z,68.72
2024-05-09T18:51:28.572Z,68.70
2024-05-09T18:53:56.274Z,69.01
2024-05-09T18:56:23.862Z,68.81
2024-05-09T18:58:51.536Z,68.82
2024-05-09T19:01:19.000Z,68.71
2024-05-09T19:03:47.775Z,68.77
2024-05-09T19:06:15.576Z,68.94
2024-05-09T19:08:43.129Z,69.01
2024-05-09T19:11:10.680Z,68.85
2024-05-09T19:13:38.406Z,68.86
2024-05-09T19:16:06.622Z,68.75
2024-05-09T19:18:34.324Z,68.83
2024-05-09T19:21:02.160Z,68.76
2024-05-09T19:23:32.508Z,68.86
2024-05-09T19:25:59.151Z,69.05
2024-05-09T19:28:26.686Z,69.24
2024-05-09T19:30:54.259Z,69.40
2024-05-09T19:33:21.812Z,69.49
2024-05-09T19:35:50.204Z,69.72
2024-05-09T19:38:17.748Z,69.82
2024-05-09T19:40:45.264Z,69.85
2024-05-09T19:43:12.859Z,69.85
2024-05-09T19:45:40.417Z,69.85
2024-05-09T19:48:08.274Z,69.78
2024-05-09T19:50:41.989Z,69.86
2024-05-09T19:53:05.572Z,70.03
2024-05-09T19:55:33.222Z,70.15
2024-05-09T19:58:04.759Z,70.20
2024-05-09T20:00:36.275Z,70.18
2024-05-09T20:03:03.367Z,70.22
2024-05-09T20:05:31.456Z,70.27
2024-05-09T20:07:59.024Z,70.23
2024-05-09T20:10:31.686Z,70.20
2024-05-09T20:12:55.903Z,70.27
2024-05-09T20:15:23.430Z,70.23
2024-05-09T20:17:51.180Z,70.22
2024-05-09T20:20:28.292Z,70.21
2024-05-09T20:22:48.221Z,70.22
2024-05-09T20:25:16.028Z,70.05
2024-05-09T20:27:43.921Z,70.21
2024-05-09T20:30:14.424Z,70.30
2024-05-09T20:32:41.096Z,70.33
2024-05-09T20:35:08.821Z,70.47
2024-05-09T20:37:36.331Z,70.65
2024-05-09T20:40:07.912Z,70.67
2024-05-09T20:42:34.358Z,70.78
2024-05-09T20:45:02.107Z,70.58
2024-05-09T20:47:29.644Z,70.53
2024-05-09T20:49:57.508Z,70.45
2024-05-09T20:52:24.988Z,70.78
2024-05-09T20:54:52.616Z,71.10
2024-05-09T20:57:20.205Z,71.36
2024-05-09T20:59:47.916Z,71.53
2024-05-09T21:02:15.841Z,71.61
2024-05-09T21:04:43.904Z,71.63
2024-05-09T21:07:11.973Z,71.58
2024-05-09T21:09:39.537Z,71.50
2024-05-09T21:12:07.327Z,71.33
2024-05-09T21:14:34.880Z,71.36
2024-05-09T21:17:02.349Z,71.33
2024-05-09T21:19:29.949Z,71.18
2024-05-09T21:21:57.517Z,70.87
2024-05-09T21:24:25.011Z,70.61
2024-05-09T21:26:52.500Z,70.49
2024-05-09T21:29:20.090Z,70.24
2024-05-09T21:31:47.761Z,70.06
2024-05-09T21:34:15.550Z,69.77
2024-05-09T21:36:43.363Z,69.48
2024-05-09T21:39:11.139Z,69.41
2024-05-09T21:41:38.490Z,69.72
2024-05-09T21:44:06.086Z,69.85
2024-05-09T21:46:33.770Z,69.99
2024-05-09T21:49:03.052Z,69.74
2024-05-09T21:51:31.139Z,69.60
2024-05-09T21:53:58.916Z,69.45
2024-05-09T21:56:26.571Z,69.57
2024-05-09T21:58:54.218Z,69.45
2024-05-09T22:01:22.387Z,69.75
2024-05-09T22:03:50.050Z,69.86
2024-05-09T22:06:17.923Z,69.90
2024-05-09T22:08:45.460Z,69.97
2024-05-09T22:11:13.085Z,69.97
2024-05-09T22:13:40.409Z,69.91
2024-05-09T22:16:08.187Z,70.00
2024-05-09T22:18:35.938Z,70.12
2024-05-09T22:21:03.942Z,70.11
2024-05-09T22:23:31.733Z,70.03
2024-05-09T22:25:59.522Z,70.26
2024-05-09T22:28:27.151Z,70.31
2024-05-09T22:30:54.795Z,70.31
2024-05-09T22:33:22.595Z,70.28
2024-05-09T22:35:50.780Z,70.32
2024-05-09T22:38:18.199Z,70.56
2024-05-09T22:40:48.848Z,70.40
2024-05-09T22:43:22.562Z,70.42
2024-05-09T22:45:50.114Z,70.38
2024-05-09T22:48:18.283Z,70.48
2024-05-09T22:50:45.998Z,70.59
2024-05-09T22:53:13.411Z,70.61
2024-05-09T22:55:41.153Z,70.54
2024-05-09T22:58:08.922Z,70.71
2024-05-09T23:00:36.662Z,70.89
2024-05-09T23:03:05.413Z,71.12
2024-05-09T23:05:33.252Z,71.17
2024-05-09T23:08:01.506Z,71.59
2024-05-09T23:10:35.433Z,71.79
2024-05-09T23:12:58.634Z,71.88
2024-05-09T23:15:26.266Z,71.91
2024-05-09T23:17:54.635Z,72.18
2024-05-09T23:20:33.129Z,72.23
2024-05-09T23:22:51.879Z,72.31
2024-05-09T23:25:19.568Z,72.14
2024-05-09T23:27:47.495Z,72.17
2024-05-09T23:30:25.384Z,72.13
2024-05-09T23:32:44.841Z,72.18
2024-05-09T23:35:12.385Z,72.18
2024-05-09T23:37:39.955Z,72.19
2024-05-09T23:40:09.780Z,71.98
2024-05-09T23:42:41.348Z,72.16
2024-05-09T23:45:09.099Z,72.14
2024-05-09T23:47:36.805Z,72.05
2024-05-09T23:50:08.962Z,71.79
2024-05-09T23:52:35.756Z,71.58
2024-05-09T23:55:03.766Z,71.45
2024-05-09T23:57:31.345Z,71.21
